»·PEaware :: N751LU KBLI-KMWH

N751LU :: KBLI-KMWH

FLIGHT INFORMATION

Flight Status: Arrived
Operator: Privately registered:
United States
More flights under this callsign
Pilot: Ewen S. (18928)
Aircraft: CANADAIR CL-600 CHALLENGER
(CL60)
More flights by this aircraft type
Origin: KBLI Bellingham Intl
United States
Destination: KMWH Grant Co Intl
United States
More flights between these airports :: More routes between these airports
Route: KIENO6 DNHRT ZIRAN MWH
File this flight plan on PilotEdge
Remarks:
Altitude:
(Current/Filed)
27,000ft
Speed:
(Current/Filed)
430kts
Departed: 07-Feb-23 11:30 AM
Arrived: 07-Feb-23 12:09 PM
Distance/Time
Traveled:
161nm/0:39
Distance/Time
To Go:
Arrived

Flight Plot

Page will automatically refresh every two minutes.

Flight plan parsing failed; only flown route is shown


Map Options




Map Legend


Flown Route
Filed Route
Departure Airport
Arrival Airport
Navaid (VOR, NDB)
Fix

Horizontal Profiles

Position Reports

Time Latitude Longitude Heading Altitude Ground
Speed
07-Feb-23 11:12 48.792803 -122.533024 51 161ft 0kts
07-Feb-23 11:13 48.792803 -122.533024 51 161ft 0kts
07-Feb-23 11:14 48.792803 -122.533024 51 161ft 0kts
07-Feb-23 11:15 48.792803 -122.533024 51 161ft 0kts
07-Feb-23 11:16 48.792803 -122.533024 51 161ft 0kts
07-Feb-23 11:17 48.792803 -122.533024 51 161ft 0kts
07-Feb-23 11:18 48.792803 -122.533024 51 161ft 0kts
07-Feb-23 11:19 48.792803 -122.533024 51 161ft 0kts
07-Feb-23 11:20 48.792803 -122.533024 51 161ft 0kts
07-Feb-23 11:21 48.792803 -122.533024 51 161ft 0kts
07-Feb-23 11:22 48.792803 -122.533024 51 161ft 0kts
07-Feb-23 11:23 48.792803 -122.533024 51 161ft 0kts
07-Feb-23 11:24 48.794017 -122.533298 329 161ft 18kts
07-Feb-23 11:25 48.798425 -122.535839 359 163ft 20kts
07-Feb-23 11:26 48.800862 -122.536173 337 166ft 0kts
07-Feb-23 11:27 48.800862 -122.536173 337 166ft 0kts
07-Feb-23 11:28 48.800491 -122.537516 180 167ft 0kts
07-Feb-23 11:29 48.773998 -122.537299 188 1322ft 184kts
07-Feb-23 11:30 48.728906 -122.565784 205 6643ft 182kts
07-Feb-23 11:31 48.674611 -122.579956 185 10439ft 245kts
07-Feb-23 11:32 48.604130 -122.599023 198 14388ft 269kts
07-Feb-23 11:33 48.536100 -122.551279 132 18196ft 327kts
07-Feb-23 11:34 48.484070 -122.434320 133 21387ft 345kts
07-Feb-23 11:35 48.429089 -122.312522 135 24260ft 358kts
07-Feb-23 11:36 48.371161 -122.185316 135 26297ft 384kts
07-Feb-23 11:37 48.304700 -122.040408 133 26280ft 449kts
07-Feb-23 11:38 48.235342 -121.889056 133 26281ft 442kts
07-Feb-23 11:39 48.164798 -121.736336 133 26319ft 444kts
07-Feb-23 11:40 48.093780 -121.583544 133 26346ft 448kts
07-Feb-23 11:41 48.021965 -121.429899 133 26363ft 448kts
07-Feb-23 11:42 47.950399 -121.277609 133 26406ft 447kts
07-Feb-23 11:43 47.878223 -121.124924 133 26417ft 445kts
07-Feb-23 11:44 47.806211 -120.973467 133 26455ft 448kts
07-Feb-23 11:45 47.733967 -120.822507 135 26456ft 445kts
07-Feb-23 11:46 47.656865 -120.683586 138 25296ft 422kts
07-Feb-23 11:47 47.583195 -120.553030 137 23188ft 399kts
07-Feb-23 11:48 47.513794 -120.430696 137 21231ft 377kts
07-Feb-23 11:49 47.448136 -120.315586 137 19337ft 359kts
07-Feb-23 11:50 47.384969 -120.205258 137 17493ft 343kts
07-Feb-23 11:51 47.323603 -120.098568 136 15540ft 337kts
07-Feb-23 11:52 47.263516 -119.994507 135 13783ft 327kts
07-Feb-23 11:53 47.231957 -119.874369 69 11890ft 340kts
07-Feb-23 11:54 47.277983 -119.754390 56 10032ft 334kts
07-Feb-23 11:55 47.325679 -119.638272 57 8266ft 324kts
07-Feb-23 11:56 47.369603 -119.530716 58 6728ft 288kts
07-Feb-23 11:57 47.407627 -119.437507 60 5406ft 241kts
07-Feb-23 11:58 47.452940 -119.369346 16 5065ft 234kts
07-Feb-23 11:59 47.502476 -119.397735 262 5059ft 197kts
07-Feb-23 12:00 47.468465 -119.444269 180 5070ft 170kts
07-Feb-23 12:01 47.422892 -119.420899 165 5074ft 173kts
07-Feb-23 12:02 47.377900 -119.398832 168 4191ft 151kts
07-Feb-23 12:03 47.337753 -119.379758 166 3466ft 150kts
07-Feb-23 12:04 47.299127 -119.361348 163 2694ft 126kts
07-Feb-23 12:05 47.266971 -119.346089 160 2059ft 121kts
07-Feb-23 12:06 47.233737 -119.330311 160 1378ft 127kts
07-Feb-23 12:07 47.206466 -119.317248 163 1175ft 62kts
07-Feb-23 12:08 47.202613 -119.318294 233 1176ft 16kts
07-Feb-23 12:09 47.199593 -119.324368 234 1185ft 20kts
07-Feb-23 12:10 47.196020 -119.331568 225 1196ft 10kts
07-Feb-23 12:11 47.194225 -119.330122 87 1195ft 0kts

Navigation Log

Ident Type
Flight plan parsing failed, navigation log unavailable